Time;durP1;ratioP1;P1;durP2;ratioP2;P2;SDS_P1;SDS_P2;PMS_P1;PMS_P2;Temp;Humidity;BMP_temperature;BMP_pressure;BME280_temperature;BME280_humidity;BME280_pressure;Samples;Min_cycle;Max_cycle;Signal;HPM_P1;HPM_P2
2024/03/20 00:00:02;;;;;;;38.50;12.38;;;;;;;7.80;100.00;97628.53;5009617;28;20415;-83
2024/03/20 00:02:29;;;;;;;38.63;12.75;;;;;;;7.77;100.00;97633.22;5014782;28;20846;-82
2024/03/20 00:04:55;;;;;;;37.72;12.27;;;;;;;7.70;100.00;97629.09;5019803;28;20412;-81
2024/03/20 00:07:22;;;;;;;37.77;11.27;;;;;;;7.69;100.00;97641.44;5018700;28;20854;-84
2024/03/20 00:09:48;;;;;;;41.03;12.27;;;;;;;7.65;100.00;97635.03;5010249;28;20430;-82
2024/03/20 00:12:14;;;;;;;33.85;11.93;;;;;;;7.60;100.00;97637.53;5003896;28;20400;-82
2024/03/20 00:14:42;;;;;;;34.40;11.82;;;;;;;7.57;100.00;97635.38;5020126;28;20408;-83
2024/03/20 00:17:08;;;;;;;38.93;11.90;;;;;;;7.53;100.00;97638.66;5007042;28;20406;-83
2024/03/20 00:19:34;;;;;;;38.92;13.02;;;;;;;7.50;100.00;97636.50;5013660;28;20404;-84
2024/03/20 00:22:00;;;;;;;39.88;13.23;;;;;;;7.48;100.00;97630.63;5018186;28;20428;-83
2024/03/20 00:24:26;;;;;;;43.92;13.93;;;;;;;7.45;100.00;97631.88;5002995;28;20510;-82
2024/03/20 00:26:53;;;;;;;36.08;12.45;;;;;;;7.42;100.00;97634.19;5012024;28;20411;-83
2024/03/20 00:29:19;;;;;;;43.42;13.60;;;;;;;7.40;100.00;97634.41;5008331;28;20424;-82
2024/03/20 00:31:46;;;;;;;47.40;14.15;;;;;;;7.33;100.00;97636.31;5015955;28;20409;-81
2024/03/20 00:34:12;;;;;;;49.40;15.37;;;;;;;7.21;100.00;97625.75;5026579;28;20432;-81
2024/03/20 00:36:39;;;;;;;44.53;14.70;;;;;;;7.12;100.00;97619.19;5030646;28;20409;-80
2024/03/20 00:39:08;;;;;;;44.05;13.70;;;;;;;7.06;100.00;97619.28;5020978;28;20392;-82
2024/03/20 00:41:34;;;;;;;34.38;12.27;;;;;;;6.99;100.00;97622.00;5014786;28;20411;-81
2024/03/20 00:44:00;;;;;;;41.28;13.25;;;;;;;6.93;100.00;97610.50;5007057;28;20881;-82
2024/03/20 00:46:27;;;;;;;38.25;13.15;;;;;;;6.89;100.00;97604.09;5011112;28;20410;-83
2024/03/20 00:48:55;;;;;;;32.42;11.80;;;;;;;6.87;100.00;97605.34;5011859;28;20421;-80
2024/03/20 00:51:21;;;;;;;30.55;11.25;;;;;;;6.85;100.00;97607.38;5000724;28;20403;-81
2024/03/20 00:53:48;;;;;;;27.02;10.23;;;;;;;6.83;100.00;97602.38;4999380;28;20430;-82
2024/03/20 00:56:14;;;;;;;25.58;9.27;;;;;;;6.79;100.00;97606.44;5016385;28;20424;-83
2024/03/20 00:58:40;;;;;;;31.02;10.82;;;;;;;6.76;100.00;97609.53;5016925;28;20400;-83
2024/03/20 01:01:06;;;;;;;32.22;11.30;;;;;;;6.73;100.00;97601.28;5015385;28;20485;-84
2024/03/20 01:03:32;;;;;;;30.20;10.63;;;;;;;6.71;100.00;97598.84;5016416;28;20405;-84
2024/03/20 01:06:00;;;;;;;41.70;13.15;;;;;;;6.70;100.00;97596.44;4999944;28;20759;-83
2024/03/20 01:08:26;;;;;;;32.67;11.63;;;;;;;6.65;100.00;97597.09;5010450;28;20398;-83
2024/03/20 01:10:52;;;;;;;34.55;12.10;;;;;;;6.64;100.00;97594.69;5013219;28;20898;-84
2024/03/20 01:13:19;;;;;;;47.60;14.20;;;;;;;6.65;100.00;97596.31;5010637;28;20480;-83
2024/03/20 01:15:45;;;;;;;51.17;14.70;;;;;;;6.64;100.00;97592.06;5019913;28;20401;-83
2024/03/20 01:18:12;;;;;;;50.83;16.15;;;;;;;6.65;100.00;97591.84;5007813;28;20406;-84
2024/03/20 01:20:38;;;;;;;49.83;15.55;;;;;;;6.72;100.00;97594.41;5016043;28;20770;-83
2024/03/20 01:23:05;;;;;;;53.47;16.33;;;;;;;6.79;100.00;97600.38;4998250;28;20496;-82
2024/03/20 01:25:32;;;;;;;40.60;13.73;;;;;;;6.78;100.00;97598.78;5000618;28;20452;-81
2024/03/20 01:27:58;;;;;;;40.47;13.13;;;;;;;6.68;100.00;97594.06;5007129;28;20409;-81
2024/03/20 01:30:24;;;;;;;45.03;13.50;;;;;;;6.59;100.00;97584.84;5000905;28;20508;-83
2024/03/20 01:32:50;;;;;;;38.85;11.73;;;;;;;6.53;100.00;97583.91;5002184;28;20437;-83
2024/03/20 01:35:16;;;;;;;39.97;12.90;;;;;;;6.49;100.00;97587.97;5010077;28;20478;-83
2024/03/20 01:37:43;;;;;;;48.60;15.13;;;;;;;6.44;100.00;97589.69;5011246;28;20405;-83
2024/03/20 01:40:11;;;;;;;43.25;13.77;;;;;;;6.42;100.00;97578.56;5011505;28;20494;-83
2024/03/20 01:42:37;;;;;;;45.20;14.15;;;;;;;6.44;100.00;97584.41;5003242;28;20451;-84
2024/03/20 01:45:12;;;;;;;43.17;13.73;;;;;;;6.42;100.00;97581.19;5017071;28;20397;-83
2024/03/20 01:47:38;;;;;;;36.97;11.90;;;;;;;6.37;100.00;97579.22;5020452;28;20400;-83
2024/03/20 01:50:06;;;;;;;28.77;10.25;;;;;;;6.34;100.00;97574.41;5020299;28;20511;-81
2024/03/20 01:52:33;;;;;;;46.58;12.95;;;;;;;6.32;100.00;97578.25;5020321;28;20405;-83
2024/03/20 01:54:59;;;;;;;33.85;11.85;;;;;;;6.32;100.00;97580.88;5020432;28;20415;-84
2024/03/20 01:57:26;;;;;;;39.47;13.17;;;;;;;6.37;100.00;97581.88;5024363;28;20416;-83
2024/03/20 01:59:52;;;;;;;47.05;13.05;;;;;;;6.36;100.00;97582.88;5012658;28;20412;-84
2024/03/20 02:02:18;;;;;;;42.35;13.95;;;;;;;6.30;100.00;97589.03;5020057;28;20454;-84
2024/03/20 02:04:45;;;;;;;35.13;13.20;;;;;;;6.27;100.00;97586.00;5019096;28;20575;-84
2024/03/20 02:07:11;;;;;;;45.28;13.40;;;;;;;6.25;100.00;97585.41;5011609;28;20403;-84
2024/03/20 02:09:37;;;;;;;44.70;13.90;;;;;;;6.25;100.00;97583.59;5020267;28;20420;-81
2024/03/20 02:12:04;;;;;;;45.65;14.00;;;;;;;6.30;100.00;97586.38;5021707;28;20400;-82
2024/03/20 02:14:38;;;;;;;37.35;12.88;;;;;;;6.19;100.00;97581.84;5010789;28;20877;-83
2024/03/20 02:17:04;;;;;;;34.70;12.32;;;;;;;6.19;100.00;97580.03;5009651;28;20397;-84
2024/03/20 02:19:31;;;;;;;38.20;12.70;;;;;;;6.17;100.00;97576.81;5011750;28;20887;-84
2024/03/20 02:21:58;;;;;;;39.17;12.52;;;;;;;6.14;100.00;97577.25;5016503;28;20408;-83
2024/03/20 02:24:25;;;;;;;42.30;13.98;;;;;;;6.13;100.00;97574.84;5013611;28;20410;-83
2024/03/20 02:26:51;;;;;;;51.95;15.40;;;;;;;6.07;100.00;97579.16;5011079;28;20648;-83
2024/03/20 02:29:17;;;;;;;37.50;12.95;;;;;;;6.03;100.00;97572.69;5005034;28;20449;-80
2024/03/20 02:31:44;;;;;;;38.85;12.43;;;;;;;6.02;100.00;97573.72;5004547;28;20406;-83
2024/03/20 02:34:10;;;;;;;36.45;13.15;;;;;;;6.00;100.00;97577.59;5005986;28;20400;-82
2024/03/20 02:36:36;;;;;;;36.92;12.65;;;;;;;5.96;100.00;97576.41;5003654;28;20411;-83
2024/03/20 02:39:03;;;;;;;35.15;12.45;;;;;;;5.93;100.00;97577.66;5008635;28;20410;-82
2024/03/20 02:41:29;;;;;;;34.97;12.30;;;;;;;5.92;100.00;97577.88;5016275;28;20790;-83
2024/03/20 02:43:56;;;;;;;32.88;11.52;;;;;;;5.90;100.00;97578.09;5016557;28;20483;-83
2024/03/20 02:46:22;;;;;;;44.03;14.18;;;;;;;5.96;100.00;97573.78;5010938;28;20418;-84
2024/03/20 02:48:48;;;;;;;52.67;16.38;;;;;;;5.90;100.00;97577.28;5014267;28;20488;-82
2024/03/20 02:51:14;;;;;;;43.22;14.77;;;;;;;5.85;100.00;97570.03;5016185;28;20414;-83
2024/03/20 02:53:40;;;;;;;42.60;14.60;;;;;;;5.83;100.00;97566.81;5024997;28;20412;-82
2024/03/20 02:56:08;;;;;;;41.08;14.15;;;;;;;5.82;100.00;97567.81;5015046;28;20405;-81
2024/03/20 02:58:34;;;;;;;40.90;14.50;;;;;;;5.83;100.00;97572.06;5015757;28;20467;-81
2024/03/20 03:01:00;;;;;;;39.28;14.77;;;;;;;5.81;100.00;97576.72;5016171;28;20475;-82
2024/03/20 03:03:26;;;;;;;44.47;15.43;;;;;;;5.79;100.00;97568.25;5002447;28;20880;-82
2024/03/20 03:05:52;;;;;;;47.83;17.33;;;;;;;5.75;100.00;97569.72;5005487;28;20408;-82
2024/03/20 03:08:19;;;;;;;60.63;20.23;;;;;;;5.81;100.00;97568.84;5016335;28;20459;-82
2024/03/20 03:10:45;;;;;;;63.75;20.40;;;;;;;5.83;100.00;97572.88;5016269;28;20413;-82
2024/03/20 03:13:12;;;;;;;64.32;21.05;;;;;;;5.86;100.00;97576.09;5017043;28;20428;-82
2024/03/20 03:15:39;;;;;;;58.28;20.52;;;;;;;5.83;100.00;97574.69;5019121;28;20411;-82
2024/03/20 03:18:06;;;;;;;58.63;20.90;;;;;;;5.84;100.00;97581.56;4998956;28;20411;-83
2024/03/20 03:20:35;;;;;;;64.85;21.77;;;;;;;5.80;100.00;97573.28;5012851;28;20412;-82
2024/03/20 03:23:02;;;;;;;66.77;21.20;;;;;;;5.80;100.00;97585.63;5016479;28;20946;-83
2024/03/20 03:25:28;;;;;;;72.22;22.73;;;;;;;5.76;100.00;97587.06;5014700;28;20451;-80
2024/03/20 03:27:54;;;;;;;58.70;19.70;;;;;;;5.76;100.00;97582.63;5016883;28;20413;-83
2024/03/20 03:30:21;;;;;;;62.53;21.70;;;;;;;5.73;100.00;97577.00;5011949;28;20422;-83
2024/03/20 03:32:48;;;;;;;64.00;20.43;;;;;;;5.76;100.00;97587.06;5014048;28;20393;-83
2024/03/20 03:35:14;;;;;;;66.53;21.95;;;;;;;5.76;100.00;97587.88;5015642;28;20594;-83
2024/03/20 03:37:41;;;;;;;66.82;22.50;;;;;;;5.79;100.00;97590.06;5003057;28;20398;-82
2024/03/20 03:40:10;;;;;;;57.00;19.38;;;;;;;5.73;100.00;97588.31;5010434;28;20760;-82
2024/03/20 03:42:37;;;;;;;55.60;19.13;;;;;;;5.69;100.00;97600.25;5014177;28;20397;-82
2024/03/20 03:45:04;;;;;;;50.05;16.02;;;;;;;5.66;100.00;97590.19;5017220;28;20416;-80
2024/03/20 03:47:32;;;;;;;51.22;18.25;;;;;;;5.64;100.00;97594.06;4995696;28;20403;-81
2024/03/20 03:49:58;;;;;;;54.50;18.25;;;;;;;5.63;100.00;97601.13;5013917;28;20452;-82
2024/03/20 03:52:25;;;;;;;60.13;19.67;;;;;;;5.63;100.00;97597.69;5009736;28;20418;-83
2024/03/20 03:54:51;;;;;;;56.53;18.70;;;;;;;5.57;100.00;97594.09;5012798;28;20393;-82
2024/03/20 03:57:17;;;;;;;63.23;20.60;;;;;;;5.61;100.00;97592.66;5015305;28;20399;-82
2024/03/20 03:59:44;;;;;;;68.90;21.73;;;;;;;5.63;100.00;97595.88;5015784;28;20483;-83
2024/03/20 04:02:11;;;;;;;64.77;21.37;;;;;;;5.59;100.00;97589.44;5007843;28;20457;-83
2024/03/20 04:04:38;;;;;;;52.92;19.48;;;;;;;5.53;100.00;97595.53;5015610;28;20468;-82
2024/03/20 04:07:05;;;;;;;49.97;17.23;;;;;;;5.49;100.00;97591.72;5014877;28;20400;-81
2024/03/20 04:09:31;;;;;;;45.67;16.15;;;;;;;5.49;100.00;97596.19;5007434;28;20416;-83
2024/03/20 04:11:58;;;;;;;47.60;17.00;;;;;;;5.44;100.00;97592.38;5015875;28;20408;-83
2024/03/20 04:14:24;;;;;;;61.35;19.42;;;;;;;5.53;100.00;97592.09;5016421;28;20455;-84
2024/03/20 04:16:50;;;;;;;61.55;20.30;;;;;;;5.48;100.00;97598.00;5028384;28;20444;-82
2024/03/20 04:19:16;;;;;;;63.45;19.30;;;;;;;5.43;100.00;97590.75;5016132;28;20408;-82
2024/03/20 04:21:44;;;;;;;60.10;18.50;;;;;;;5.42;100.00;97591.78;5008722;28;20436;-84
2024/03/20 04:24:10;;;;;;;52.53;18.73;;;;;;;5.38;100.00;97595.84;5016316;28;20401;-83
2024/03/20 04:26:36;;;;;;;47.35;16.40;;;;;;;5.33;100.00;97600.13;5016950;28;20436;-83
2024/03/20 04:29:02;;;;;;;42.80;15.83;;;;;;;5.29;100.00;97591.88;5006334;28;20406;-82
2024/03/20 04:31:29;;;;;;;43.97;15.27;;;;;;;5.28;100.00;97586.81;5007677;28;20472;-84
2024/03/20 04:33:55;;;;;;;52.85;17.35;;;;;;;5.34;100.00;97593.84;5016823;28;20400;-82
2024/03/20 04:36:21;;;;;;;51.72;18.13;;;;;;;5.31;100.00;97584.59;5012995;28;20441;-82
2024/03/20 04:38:49;;;;;;;51.97;17.38;;;;;;;5.26;100.00;97586.25;5002741;28;20413;-82
2024/03/20 04:41:15;;;;;;;53.33;17.58;;;;;;;5.28;100.00;97592.06;4999366;28;20405;-83
2024/03/20 04:43:42;;;;;;;50.13;16.23;;;;;;;5.26;100.00;97588.88;5007426;28;20460;-81
2024/03/20 04:46:08;;;;;;;46.35;15.88;;;;;;;5.25;100.00;97587.28;4998837;28;20401;-83
2024/03/20 04:48:34;;;;;;;43.95;14.95;;;;;;;5.22;100.00;97593.72;5016325;28;20468;-82
2024/03/20 04:51:00;;;;;;;39.27;14.00;;;;;;;5.21;100.00;97593.94;5014823;28;20472;-83
2024/03/20 04:53:26;;;;;;;44.03;14.75;;;;;;;5.16;100.00;97591.97;5022260;28;20801;-82
2024/03/20 04:55:54;;;;;;;35.70;13.35;;;;;;;5.17;100.00;97584.91;5016146;28;20404;-83
2024/03/20 04:58:20;;;;;;;41.23;13.70;;;;;;;5.13;100.00;97583.69;5019290;28;20729;-83
2024/03/20 05:00:46;;;;;;;42.17;14.30;;;;;;;5.12;100.00;97587.31;5013343;28;20392;-81
2024/03/20 05:03:12;;;;;;;36.40;12.83;;;;;;;5.07;100.00;97587.97;5013002;28;20416;-82
2024/03/20 05:05:40;;;;;;;34.70;12.40;;;;;;;5.03;100.00;97590.22;5007046;28;20433;-81
2024/03/20 05:08:06;;;;;;;40.35;13.25;;;;;;;5.04;100.00;97597.06;5009173;28;20458;-82
2024/03/20 05:10:33;;;;;;;37.53;13.38;;;;;;;5.00;100.00;97593.25;5009168;28;20430;-82
2024/03/20 05:13:01;;;;;;;38.15;12.48;;;;;;;5.04;100.00;97589.19;5019155;28;20477;-79
2024/03/20 05:15:27;;;;;;;35.13;12.48;;;;;;;4.97;100.00;97585.78;5017605;28;20406;-80
2024/03/20 05:17:53;;;;;;;36.20;12.40;;;;;;;4.95;100.00;97587.84;5003777;28;20457;-80
2024/03/20 05:20:20;;;;;;;30.83;11.98;;;;;;;4.94;100.00;97585.44;5009049;28;20408;-79
2024/03/20 05:22:46;;;;;;;28.80;10.57;;;;;;;4.90;100.00;97587.66;5012831;28;20416;-79
2024/03/20 05:25:12;;;;;;;28.33;10.60;;;;;;;4.89;100.00;97586.03;5016100;28;20409;-80
2024/03/20 05:27:39;;;;;;;24.27;9.13;;;;;;;4.87;100.00;97585.47;5005049;28;20402;-80
2024/03/20 05:30:08;;;;;;;27.38;10.52;;;;;;;4.88;100.00;97586.28;5008608;28;20426;-83
2024/03/20 05:32:34;;;;;;;24.60;9.48;;;;;;;4.85;100.00;97587.50;5010136;28;20394;-82
2024/03/20 05:35:00;;;;;;;30.20;9.80;;;;;;;4.87;100.00;97582.84;5011492;28;20420;-82
2024/03/20 05:37:27;;;;;;;34.15;11.95;;;;;;;4.87;100.00;97589.91;5008744;28;20402;-80
2024/03/20 05:39:53;;;;;;;26.65;10.73;;;;;;;4.86;100.00;97588.28;5012504;28;20525;-81
2024/03/20 05:42:19;;;;;;;29.17;10.27;;;;;;;4.85;100.00;97595.34;5012313;28;20495;-82
2024/03/20 05:44:46;;;;;;;24.52;9.32;;;;;;;4.86;100.00;97593.53;5009972;28;20429;-82
2024/03/20 05:47:14;;;;;;;26.05;9.32;;;;;;;4.86;100.00;97594.34;5024512;28;20412;-85
2024/03/20 05:49:42;;;;;;;26.65;10.05;;;;;;;4.87;100.00;97593.34;5006401;28;20433;-80
2024/03/20 05:52:08;;;;;;;23.55;9.50;;;;;;;4.88;100.00;97599.38;5010031;28;20498;-81
2024/03/20 05:54:34;;;;;;;22.73;8.60;;;;;;;4.89;100.00;97595.72;5007360;28;20397;-82
2024/03/20 05:57:00;;;;;;;32.58;10.25;;;;;;;4.92;100.00;97604.00;5006498;28;20571;-81
2024/03/20 05:59:27;;;;;;;25.67;9.60;;;;;;;4.97;100.00;97603.34;5010344;28;20413;-82
2024/03/20 06:01:53;;;;;;;31.48;10.57;;;;;;;4.96;100.00;97599.94;5008318;28;20410;-81
2024/03/20 06:04:20;;;;;;;33.45;10.27;;;;;;;5.02;100.00;97608.78;5012185;28;20443;-82
2024/03/20 06:06:46;;;;;;;30.52;10.88;;;;;;;5.01;100.00;97615.84;5012431;28;20402;-81
2024/03/20 06:09:13;;;;;;;27.88;10.55;;;;;;;5.05;100.00;97617.03;5019169;28;20443;-82
2024/03/20 06:11:39;;;;;;;30.73;10.32;;;;;;;5.09;100.00;97616.63;5008433;28;20397;-80
2024/03/20 06:14:06;;;;;;;30.90;10.30;;;;;;;5.15;100.00;97626.28;5011830;28;20407;-81
2024/03/20 06:16:32;;;;;;;24.55;9.02;;;;;;;5.17;100.00;97617.19;5024286;28;20443;-80
2024/03/20 06:18:58;;;;;;;25.85;9.30;;;;;;;5.21;100.00;97620.19;5021519;28;20792;-81
2024/03/20 06:21:26;;;;;;;26.77;9.10;;;;;;;5.24;100.00;97623.19;5015701;28;20403;-81
2024/03/20 06:23:52;;;;;;;24.30;9.05;;;;;;;5.30;100.00;97627.59;5010272;28;20401;-82
2024/03/20 06:26:18;;;;;;;24.60;8.73;;;;;;;5.34;100.00;97620.91;5016104;28;20467;-80
2024/03/20 06:28:44;;;;;;;21.92;8.35;;;;;;;5.39;100.00;97621.09;5015426;28;20407;-81
2024/03/20 06:31:11;;;;;;;27.08;9.90;;;;;;;5.45;100.00;97630.72;5019262;28;20425;-80
2024/03/20 06:33:37;;;;;;;29.67;11.02;;;;;;;5.52;100.00;97617.56;5019386;28;20396;-82
2024/03/20 06:36:04;;;;;;;24.37;9.83;;;;;;;5.59;100.00;97620.94;5023884;28;20768;-82
2024/03/20 06:38:31;;;;;;;25.90;9.40;;;;;;;5.68;100.00;97627.53;5024028;28;20468;-82
2024/03/20 06:40:58;;;;;;;24.23;8.70;;;;;;;5.78;100.00;97627.06;5014416;28;20402;-83
2024/03/20 06:43:29;;;;;;;21.67;7.80;;;;;;;5.87;100.00;97628.38;5010709;28;20413;-83
2024/03/20 06:45:55;;;;;;;24.17;8.40;;;;;;;5.97;100.00;97630.56;5025078;28;20397;-83
2024/03/20 06:48:26;;;;;;;28.27;9.52;;;;;;;6.07;100.00;97629.06;5025550;28;20416;-83
2024/03/20 06:50:58;;;;;;;19.30;8.25;;;;;;;6.17;100.00;97636.44;5023347;28;20421;-82
2024/03/20 06:53:25;;;;;;;19.98;8.18;;;;;;;6.24;100.00;97631.91;5011561;28;20404;-84
2024/03/20 06:55:54;;;;;;;18.20;7.25;;;;;;;6.31;100.00;97640.56;5024545;28;20409;-83
2024/03/20 06:58:20;;;;;;;17.95;7.45;;;;;;;6.38;100.00;97645.78;5025638;28;20397;-83
2024/03/20 07:00:46;;;;;;;23.42;8.52;;;;;;;6.44;100.00;97642.25;5005881;28;20779;-82
2024/03/20 07:03:14;;;;;;;20.37;8.30;;;;;;;6.52;100.00;97644.59;5015720;28;20413;-82
2024/03/20 07:05:40;;;;;;;19.93;7.57;;;;;;;6.60;100.00;97637.25;5023575;28;20443;-82
2024/03/20 07:08:09;;;;;;;24.35;9.02;;;;;;;6.70;100.00;97646.41;5026502;28;20774;-83
2024/03/20 07:10:36;;;;;;;26.17;9.23;;;;;;;6.79;100.00;97643.28;5023007;28;20423;-83
2024/03/20 07:13:04;;;;;;;24.50;8.73;;;;;;;6.86;100.00;97649.25;5025322;28;20890;-82
2024/03/20 07:15:32;;;;;;;22.73;7.40;;;;;;;6.95;100.00;97650.56;5022628;28;20405;-83
2024/03/20 07:17:58;;;;;;;15.40;6.45;;;;;;;6.99;100.00;97641.19;5011674;28;20405;-83
2024/03/20 07:20:25;;;;;;;20.05;7.28;;;;;;;7.03;100.00;97646.84;5002768;28;20921;-82
2024/03/20 07:22:51;;;;;;;17.63;6.82;;;;;;;7.07;100.00;97653.25;5018662;28;20862;-82
2024/03/20 07:25:18;;;;;;;14.10;5.90;;;;;;;7.13;100.00;97655.03;5019746;28;20939;-81
2024/03/20 07:27:44;;;;;;;22.55;7.82;;;;;;;7.21;100.00;97656.53;5020877;28;20417;-82
2024/03/20 07:30:13;;;;;;;12.83;5.70;;;;;;;7.33;100.00;97662.66;5011679;28;20431;-83
2024/03/20 07:32:40;;;;;;;12.85;5.57;;;;;;;7.42;100.00;97665.78;5020770;28;20401;-84
2024/03/20 07:35:07;;;;;;;12.95;5.28;;;;;;;7.54;100.00;97666.59;5023585;28;20399;-83
2024/03/20 07:37:33;;;;;;;12.55;5.57;;;;;;;7.68;100.00;97666.19;5020320;28;20415;-83
2024/03/20 07:39:59;;;;;;;14.43;6.13;;;;;;;7.82;100.00;97666.00;5027194;28;20490;-82
2024/03/20 07:42:25;;;;;;;17.33;7.22;;;;;;;7.94;100.00;97666.81;5018500;28;20949;-83
2024/03/20 07:44:52;;;;;;;13.63;6.78;;;;;;;8.07;100.00;97669.25;5017890;28;20484;-80
2024/03/20 07:47:19;;;;;;;12.05;5.75;;;;;;;8.21;100.00;97659.28;5010557;28;20777;-81
2024/03/20 07:49:46;;;;;;;12.50;5.63;;;;;;;8.38;100.00;97662.88;5015315;28;20420;-81
2024/03/20 07:52:12;;;;;;;12.73;5.80;;;;;;;8.54;100.00;97670.09;5012289;28;20432;-82
2024/03/20 07:54:38;;;;;;;12.35;6.18;;;;;;;8.68;100.00;97668.81;5017245;28;20447;-83
2024/03/20 07:57:05;;;;;;;11.98;5.95;;;;;;;8.86;100.00;97667.88;5023758;28;20411;-82
2024/03/20 07:59:31;;;;;;;10.73;5.75;;;;;;;9.01;100.00;97668.19;5017548;28;20404;-81
2024/03/20 08:01:57;;;;;;;12.18;6.15;;;;;;;9.17;100.00;97664.78;5015211;28;20418;-82
2024/03/20 08:04:25;;;;;;;9.20;5.53;;;;;;;9.34;100.00;97667.50;5022679;28;20911;-81
2024/03/20 08:06:54;;;;;;;10.65;5.43;;;;;;;9.48;100.00;97670.63;5021366;28;20496;-81
2024/03/20 08:09:20;;;;;;;8.57;5.13;;;;;;;9.58;100.00;97670.84;5020421;28;20443;-82
2024/03/20 08:11:46;;;;;;;9.98;5.20;;;;;;;9.67;100.00;97674.69;5016667;28;20455;-79
2024/03/20 08:14:13;;;;;;;7.05;4.78;;;;;;;9.75;100.00;97671.66;5002596;28;20410;-78
2024/03/20 08:16:40;;;;;;;6.90;4.68;;;;;;;9.86;100.00;97673.44;5000107;28;20440;-79
2024/03/20 08:19:06;;;;;;;5.88;4.15;;;;;;;9.98;100.00;97668.91;5004654;28;20855;-79
2024/03/20 08:21:35;;;;;;;5.43;4.18;;;;;;;10.16;100.00;97675.78;5014059;28;20404;-78
2024/03/20 08:24:04;;;;;;;6.25;4.20;;;;;;;10.31;100.00;97670.75;5005491;28;20412;-80
2024/03/20 08:26:30;;;;;;;6.20;4.28;;;;;;;10.53;100.00;97664.69;5002375;28;20419;-79
2024/03/20 08:28:56;;;;;;;7.13;4.75;;;;;;;10.73;100.00;97665.00;5008237;28;20915;-79
2024/03/20 08:31:23;;;;;;;9.47;4.60;;;;;;;10.99;100.00;97658.16;5004210;28;20422;-80
2024/03/20 08:33:49;;;;;;;7.25;4.50;;;;;;;11.24;100.00;97659.25;5008736;28;20748;-79
2024/03/20 08:36:16;;;;;;;6.80;4.97;;;;;;;11.48;100.00;97651.84;5013274;28;20881;-80
2024/03/20 08:38:46;;;;;;;7.15;4.20;;;;;;;11.70;100.00;97653.63;5005119;28;20408;-79
2024/03/20 08:41:12;;;;;;;6.60;4.28;;;;;;;11.91;100.00;97658.88;5003556;28;20411;-79
2024/03/20 08:43:39;;;;;;;5.65;4.03;;;;;;;12.21;100.00;97653.00;4999724;28;20746;-77
2024/03/20 08:46:08;;;;;;;5.72;3.63;;;;;;;12.50;100.00;97656.13;5006886;28;20806;-79
2024/03/20 08:48:35;;;;;;;3.70;3.00;;;;;;;12.79;100.00;97652.03;5007491;28;20405;-79
2024/03/20 08:51:01;;;;;;;4.28;2.95;;;;;;;13.10;100.00;97660.94;5007709;28;20420;-79
2024/03/20 08:53:29;;;;;;;4.00;2.67;;;;;;;13.35;100.00;97662.13;5007926;28;20441;-79
2024/03/20 08:55:57;;;;;;;3.65;2.60;;;;;;;13.60;100.00;97658.75;5008361;28;20803;-79
2024/03/20 08:58:23;;;;;;;3.13;2.40;;;;;;;13.85;100.00;97664.06;5007730;28;20410;-79
2024/03/20 09:00:49;;;;;;;3.33;2.42;;;;;;;14.07;100.00;97663.81;5007212;28;20405;-79
2024/03/20 09:03:15;;;;;;;3.45;2.58;;;;;;;14.38;100.00;97662.78;5006395;28;20460;-79
2024/03/20 09:05:41;;;;;;;3.95;2.33;;;;;;;14.59;100.00;97667.00;5007849;28;20464;-79
2024/03/20 09:08:08;;;;;;;4.00;2.45;;;;;;;14.82;100.00;97662.13;5014047;28;20402;-80
2024/03/20 09:10:35;;;;;;;3.88;2.20;;;;;;;15.02;100.00;97656.75;5004982;28;20499;-80
2024/03/20 09:13:02;;;;;;;3.57;2.30;;;;;;;15.19;100.00;97659.06;5007825;28;20813;-79
2024/03/20 09:15:29;;;;;;;4.75;2.50;;;;;;;15.30;100.00;97656.09;5008483;28;20408;-79
2024/03/20 09:17:56;;;;;;;5.20;3.17;;;;;;;14.85;100.00;97662.41;5004079;28;20987;-78
2024/03/20 09:20:25;;;;;;;3.80;2.45;;;;;;;15.11;100.00;97657.78;5009282;28;20910;-77
2024/03/20 09:22:52;;;;;;;3.78;2.42;;;;;;;15.53;100.00;97662.69;5008801;28;20767;-79
2024/03/20 09:25:22;;;;;;;4.18;2.70;;;;;;;15.97;100.00;97656.50;5003813;28;20804;-79
2024/03/20 09:27:48;;;;;;;4.28;2.80;;;;;;;16.29;100.00;97656.00;5009135;28;20548;-79
2024/03/20 09:30:16;;;;;;;5.10;2.70;;;;;;;16.63;100.00;97660.22;5005281;28;20455;-79
2024/03/20 09:32:42;;;;;;;2.83;2.13;;;;;;;17.02;100.00;97661.94;5004977;28;20501;-79
2024/03/20 09:35:10;;;;;;;4.35;2.15;;;;;;;17.42;100.00;97658.75;5007557;28;20406;-80
2024/03/20 09:37:37;;;;;;;4.05;2.33;;;;;;;17.81;100.00;97655.03;5006761;28;20854;-80
2024/03/20 09:40:09;;;;;;;4.10;2.33;;;;;;;17.94;100.00;97651.63;5017430;28;20408;-80
2024/03/20 09:42:35;;;;;;;4.73;2.50;;;;;;;18.26;100.00;97653.53;5018695;28;20416;-80
2024/03/20 09:45:03;;;;;;;4.38;2.42;;;;;;;18.35;100.00;97657.09;5015265;28;20393;-77
2024/03/20 09:47:32;;;;;;;3.38;2.10;;;;;;;18.57;100.00;97653.78;5015113;28;20728;-79
2024/03/20 09:49:58;;;;;;;2.35;1.90;;;;;;;18.82;100.00;97661.38;5012897;28;20415;-80
2024/03/20 09:52:25;;;;;;;2.85;1.90;;;;;;;19.10;100.00;97656.00;5000507;28;20758;-80
2024/03/20 09:54:53;;;;;;;2.70;1.90;;;;;;;19.38;100.00;97649.53;5007814;28;20759;-79
2024/03/20 09:57:24;;;;;;;3.50;2.30;;;;;;;19.61;100.00;97659.25;5013203;28;20402;-78
2024/03/20 09:59:52;;;;;;;2.67;1.97;;;;;;;19.93;100.00;97658.25;5006615;28;20413;-80
2024/03/20 10:02:18;;;;;;;2.90;1.67;;;;;;;20.11;100.00;97648.44;5000589;28;20968;-79
2024/03/20 10:04:46;;;;;;;2.35;1.52;;;;;;;20.28;100.00;97653.91;5007076;28;20520;-79
2024/03/20 10:07:12;;;;;;;2.47;1.77;;;;;;;20.46;100.00;97652.13;5007748;28;20405;-78
2024/03/20 10:09:39;;;;;;;1.63;1.27;;;;;;;20.68;100.00;97660.16;5017941;28;20443;-79
2024/03/20 10:12:06;;;;;;;1.67;1.13;;;;;;;20.81;100.00;97647.75;5015850;28;20414;-81
2024/03/20 10:14:34;;;;;;;1.48;1.20;;;;;;;20.90;100.00;97647.78;5013929;28;20401;-79
2024/03/20 10:17:11;;;;;;;2.00;1.10;;;;;;;21.07;100.00;97645.91;5018282;28;20401;-80
2024/03/20 10:19:37;;;;;;;3.60;1.30;;;;;;;21.14;100.00;97648.16;5010913;28;20866;-81
2024/03/20 10:22:04;;;;;;;1.20;1.00;;;;;;;21.29;100.00;97657.72;5012325;28;20433;-78
2024/03/20 10:24:31;;;;;;;2.00;1.23;;;;;;;21.37;100.00;97662.34;5010441;28;20411;-79
2024/03/20 10:26:57;;;;;;;2.65;1.50;;;;;;;21.54;100.00;97654.28;5016657;28;20473;-79
2024/03/20 10:29:26;;;;;;;2.13;1.50;;;;;;;21.69;100.00;97645.75;4998200;28;20433;-78
2024/03/20 10:31:54;;;;;;;2.67;1.45;;;;;;;21.90;100.00;97643.19;5015449;28;20412;-78
2024/03/20 10:34:23;;;;;;;3.85;2.00;;;;;;;21.58;100.00;97595.97;5018253;28;20401;-80
2024/03/20 10:36:50;;;;;;;3.42;1.83;;;;;;;22.23;100.00;97611.16;5017412;28;20401;-79
2024/03/20 10:39:18;;;;;;;3.00;1.70;;;;;;;22.68;100.00;97619.59;5017955;28;20423;-79
2024/03/20 10:41:46;;;;;;;2.05;1.30;;;;;;;23.18;100.00;97608.88;5009214;28;20403;-80
2024/03/20 10:44:16;;;;;;;1.97;1.30;;;;;;;23.67;100.00;97607.31;5013390;28;20416;-79
2024/03/20 10:46:45;;;;;;;1.30;1.00;;;;;;;24.03;100.00;97601.25;5008318;28;20457;-80
2024/03/20 10:49:17;;;;;;;1.13;0.80;;;;;;;24.47;100.00;97594.31;5001507;28;20812;-80
2024/03/20 10:51:43;;;;;;;1.17;0.98;;;;;;;24.61;100.00;97575.03;5005604;28;20421;-80
2024/03/20 10:54:11;;;;;;;1.70;1.00;;;;;;;24.89;100.00;97580.53;5000049;28;20461;-80
2024/03/20 10:56:44;;;;;;;1.80;1.10;;;;;;;25.26;100.00;97582.13;5010387;28;20563;-78
2024/03/20 10:59:15;;;;;;;1.30;0.90;;;;;;;25.75;100.00;97580.09;5007119;28;20397;-81
2024/03/20 11:01:55;;;;;;;2.05;0.93;;;;;;;26.02;100.00;97581.22;5012090;28;20415;-79
2024/03/20 11:04:34;;;;;;;2.45;1.27;;;;;;;26.21;100.00;97575.94;5008420;28;20817;-78
2024/03/20 11:07:01;;;;;;;3.30;1.20;;;;;;;26.32;100.00;97576.22;5010521;28;20393;-79
2024/03/20 11:09:30;;;;;;;2.00;1.20;;;;;;;26.46;100.00;97573.09;5012699;28;20885;-78
2024/03/20 11:11:57;;;;;;;1.27;1.00;;;;;;;26.47;100.00;97563.78;5007233;28;20412;-82
2024/03/20 11:14:29;;;;;;;1.60;1.00;;;;;;;26.65;100.00;97562.31;5015937;28;20409;-82
2024/03/20 11:17:01;;;;;;;1.25;1.00;;;;;;;26.83;100.00;97560.03;5019554;28;20400;-81
2024/03/20 11:19:27;;;;;;;0.98;0.80;;;;;;;26.80;100.00;97566.16;5007062;28;20969;-80